createdAt,value
2022-12-29T00:01:16.733Z,21.02
2022-12-29T00:04:03.411Z,20.98
2022-12-29T00:06:50.094Z,21.58
2022-12-29T00:09:36.957Z,20.23
2022-12-29T00:12:23.227Z,21.60
2022-12-29T00:15:28.339Z,21.17
2022-12-29T00:18:14.639Z,20.92
2022-12-29T00:21:19.341Z,21.60
2022-12-29T00:24:24.691Z,21.70
2022-12-29T00:27:31.390Z,22.02
2022-12-29T00:30:38.267Z,21.85
2022-12-29T00:33:48.644Z,21.50
2022-12-29T00:36:41.661Z,22.25
2022-12-29T00:39:57.407Z,21.70
2022-12-29T00:43:04.007Z,21.85
2022-12-29T00:45:50.369Z,22.02
2022-12-29T00:49:01.804Z,22.95
2022-12-29T00:51:48.302Z,22.75
2022-12-29T00:54:35.847Z,23.85
2022-12-29T00:57:22.420Z,21.90
2022-12-29T01:00:09.192Z,23.33
2022-12-29T01:02:55.914Z,22.63
2022-12-29T01:05:42.343Z,22.67
2022-12-29T01:08:29.435Z,23.23
2022-12-29T01:11:16.224Z,23.05
2022-12-29T01:14:04.128Z,23.88
2022-12-29T01:16:50.739Z,23.35
2022-12-29T01:19:37.252Z,24.38
2022-12-29T01:22:23.376Z,23.73
2022-12-29T01:25:09.644Z,24.10
2022-12-29T01:27:58.091Z,24.25
2022-12-29T01:30:45.722Z,24.63
2022-12-29T01:33:33.321Z,23.60
2022-12-29T01:36:20.860Z,22.67
2022-12-29T01:39:08.557Z,23.83
2022-12-29T01:41:54.872Z,24.25
2022-12-29T01:44:54.556Z,23.63
2022-12-29T01:47:44.454Z,24.05
2022-12-29T01:50:33.372Z,23.10
2022-12-29T01:53:22.255Z,23.33
2022-12-29T01:56:09.569Z,24.13
2022-12-29T01:59:02.058Z,24.73
2022-12-29T02:01:48.534Z,23.55
2022-12-29T02:04:35.642Z,24.05
2022-12-29T02:07:23.719Z,23.40
2022-12-29T02:10:10.156Z,23.95
2022-12-29T02:12:56.377Z,24.23
2022-12-29T02:15:43.339Z,23.85
2022-12-29T02:18:35.689Z,25.23
2022-12-29T02:21:25.500Z,24.63
2022-12-29T02:24:25.634Z,25.00
2022-12-29T02:27:23.953Z,24.63
2022-12-29T02:30:13.129Z,24.05
2022-12-29T02:33:02.357Z,25.20
2022-12-29T02:35:56.807Z,24.50
2022-12-29T02:38:43.014Z,24.30
2022-12-29T02:41:34.439Z,25.50
2022-12-29T02:44:29.031Z,25.10
2022-12-29T02:47:24.197Z,24.35
2022-12-29T02:50:10.507Z,24.98
2022-12-29T02:53:01.468Z,24.77
2022-12-29T02:55:51.407Z,25.55
2022-12-29T02:58:37.792Z,24.65
2022-12-29T03:01:27.366Z,24.42
2022-12-29T03:04:26.023Z,23.92
2022-12-29T03:07:35.796Z,24.40
2022-12-29T03:10:29.762Z,23.83
2022-12-29T03:13:53.461Z,23.08
2022-12-29T03:16:47.654Z,23.48
2022-12-29T03:19:42.083Z,24.05
2022-12-29T03:22:32.509Z,23.42
2022-12-29T03:25:37.966Z,24.00
2022-12-29T03:28:31.118Z,22.25
2022-12-29T03:31:18.489Z,23.80
2022-12-29T03:34:08.504Z,22.50
2022-12-29T03:37:02.770Z,23.58
2022-12-29T03:39:49.139Z,22.95
2022-12-29T03:42:37.110Z,23.10
2022-12-29T03:45:23.520Z,23.40
2022-12-29T03:48:10.200Z,24.02
2022-12-29T03:50:58.791Z,23.80
2022-12-29T03:53:45.487Z,23.02
2022-12-29T03:56:32.772Z,22.80
2022-12-29T03:59:19.141Z,24.15
2022-12-29T04:02:05.452Z,21.90
2022-12-29T04:04:52.205Z,21.27
2022-12-29T04:07:38.730Z,20.95
2022-12-29T04:10:25.782Z,21.48
2022-12-29T04:13:16.103Z,20.85
2022-12-29T04:16:05.270Z,21.15
2022-12-29T04:18:52.423Z,20.50
2022-12-29T04:21:39.163Z,19.55
2022-12-29T04:24:25.405Z,19.00
2022-12-29T04:27:12.129Z,19.42
2022-12-29T04:30:19.419Z,19.08
2022-12-29T04:33:16.900Z,18.52
2022-12-29T04:36:05.851Z,19.15
2022-12-29T04:38:52.446Z,18.63
2022-12-29T04:41:39.485Z,18.65
2022-12-29T04:44:28.707Z,18.58
2022-12-29T04:47:14.813Z,18.30
2022-12-29T04:50:25.677Z,17.98
2022-12-29T04:53:17.647Z,18.92
2022-12-29T04:56:06.070Z,18.02
2022-12-29T04:58:52.484Z,18.55
2022-12-29T05:01:40.745Z,17.80
2022-12-29T05:04:27.376Z,18.92
2022-12-29T05:07:13.922Z,18.25
2022-12-29T05:10:01.467Z,18.95
2022-12-29T05:12:48.141Z,19.15
2022-12-29T05:15:35.494Z,19.17
2022-12-29T05:18:21.727Z,19.60
2022-12-29T05:21:08.897Z,19.27
2022-12-29T05:23:55.070Z,19.23
2022-12-29T05:26:41.909Z,19.75
2022-12-29T05:29:47.987Z,20.38
2022-12-29T05:32:34.343Z,19.08
2022-12-29T05:35:21.808Z,18.55
2022-12-29T05:38:08.663Z,19.63
2022-12-29T05:40:54.845Z,19.85
2022-12-29T05:44:01.564Z,20.30
2022-12-29T05:47:00.027Z,19.10
2022-12-29T05:50:04.577Z,20.35
2022-12-29T05:53:13.400Z,20.83
2022-12-29T05:56:02.671Z,20.98
2022-12-29T05:58:50.391Z,20.75
2022-12-29T06:01:37.538Z,20.42
2022-12-29T06:04:24.339Z,21.73
2022-12-29T06:07:10.765Z,22.17
2022-12-29T06:10:03.539Z,21.92
2022-12-29T06:12:53.500Z,22.73
2022-12-29T06:15:39.752Z,22.23
2022-12-29T06:18:28.618Z,22.80
2022-12-29T06:21:16.428Z,21.80
2022-12-29T06:24:03.612Z,22.63
2022-12-29T06:26:50.244Z,22.10
2022-12-29T06:29:38.936Z,22.42
2022-12-29T06:32:25.865Z,22.92
2022-12-29T06:35:15.973Z,22.92
2022-12-29T06:38:10.731Z,23.63
2022-12-29T06:40:57.626Z,24.27
2022-12-29T06:44:03.543Z,23.60
2022-12-29T06:47:05.945Z,23.92
2022-12-29T06:49:53.016Z,26.48
2022-12-29T06:52:39.393Z,26.52
2022-12-29T06:55:26.441Z,24.83
2022-12-29T06:58:13.316Z,28.92
2022-12-29T07:01:00.038Z,25.10
2022-12-29T07:03:46.099Z,24.35
2022-12-29T07:06:32.761Z,23.65
2022-12-29T07:09:19.882Z,25.85
2022-12-29T07:12:11.164Z,26.23
2022-12-29T07:14:57.945Z,25.92
2022-12-29T07:17:44.774Z,25.95
2022-12-29T07:20:32.152Z,26.98
2022-12-29T07:23:20.616Z,23.92
2022-12-29T07:26:09.085Z,26.88
2022-12-29T07:28:56.872Z,26.15
2022-12-29T07:31:43.997Z,25.58
2022-12-29T07:34:30.951Z,28.48
2022-12-29T07:37:18.239Z,25.80
2022-12-29T07:40:05.897Z,27.30
2022-12-29T07:42:52.975Z,26.17
2022-12-29T07:45:50.710Z,24.58
2022-12-29T07:48:38.249Z,25.63
2022-12-29T07:51:25.527Z,25.73
2022-12-29T07:54:14.215Z,25.70
2022-12-29T07:57:02.403Z,25.70
2022-12-29T07:59:55.089Z,24.88
2022-12-29T08:02:42.097Z,24.27
2022-12-29T08:05:29.119Z,24.08
2022-12-29T08:08:15.854Z,24.33
2022-12-29T08:11:02.660Z,24.13
2022-12-29T08:13:49.925Z,23.77
2022-12-29T08:16:39.600Z,23.23
2022-12-29T08:19:26.430Z,20.80
2022-12-29T08:22:13.370Z,22.17
2022-12-29T08:25:19.533Z,21.88
2022-12-29T08:28:06.096Z,21.83
2022-12-29T08:30:53.990Z,21.40
2022-12-29T08:33:41.100Z,22.20
2022-12-29T08:36:28.360Z,22.13
2022-12-29T08:39:15.451Z,22.33
2022-12-29T08:42:02.509Z,22.30
2022-12-29T08:44:49.295Z,21.98
2022-12-29T08:47:41.612Z,22.24
2022-12-29T08:50:27.784Z,22.17
2022-12-29T08:53:14.944Z,21.17
2022-12-29T08:56:05.415Z,22.48
2022-12-29T08:59:02.774Z,21.05
2022-12-29T09:01:50.630Z,20.70
2022-12-29T09:04:37.422Z,21.23
2022-12-29T09:07:23.960Z,20.08
2022-12-29T09:10:10.904Z,20.00
2022-12-29T09:12:57.352Z,21.05
2022-12-29T09:15:43.782Z,20.42
2022-12-29T09:18:30.083Z,20.58
2022-12-29T09:21:16.329Z,19.73
2022-12-29T09:24:02.580Z,18.75
2022-12-29T09:26:48.859Z,18.50
2022-12-29T09:29:35.328Z,18.63
2022-12-29T09:32:23.493Z,18.80
2022-12-29T09:35:10.021Z,18.92
2022-12-29T09:37:56.275Z,18.40
2022-12-29T09:40:42.311Z,17.98
2022-12-29T09:43:28.645Z,18.55
2022-12-29T09:46:20.965Z,19.42
2022-12-29T09:49:28.118Z,19.57
2022-12-29T09:52:16.819Z,20.63
2022-12-29T09:55:15.740Z,20.40
2022-12-29T09:58:07.783Z,19.60
2022-12-29T10:01:17.064Z,18.58
2022-12-29T10:04:06.937Z,17.90
2022-12-29T10:10:13.656Z,19.30
2022-12-29T10:13:23.212Z,18.90
2022-12-29T10:16:36.085Z,19.73
2022-12-29T10:19:35.482Z,21.40
2022-12-29T10:22:31.447Z,21.55
2022-12-29T10:25:20.347Z,21.10
2022-12-29T10:28:11.419Z,20.58
2022-12-29T10:31:05.040Z,20.75
2022-12-29T10:33:59.497Z,21.92
2022-12-29T10:36:49.977Z,21.63
2022-12-29T10:39:40.251Z,21.73
2022-12-29T10:42:31.066Z,21.67
2022-12-29T10:45:18.617Z,21.30
2022-12-29T10:48:08.416Z,19.90
2022-12-29T10:51:01.699Z,18.40
2022-12-29T10:53:51.905Z,17.52
2022-12-29T10:56:45.370Z,17.35
2022-12-29T10:59:32.791Z,16.08
2022-12-29T11:02:19.861Z,15.98
2022-12-29T11:05:12.419Z,16.55
2022-12-29T11:08:23.419Z,16.47
2022-12-29T11:11:11.023Z,14.27
2022-12-29T11:13:58.883Z,14.38
2022-12-29T11:16:46.400Z,15.10
2022-12-29T11:19:39.039Z,12.75
2022-12-29T11:22:30.237Z,13.45
2022-12-29T11:25:16.801Z,13.07
2022-12-29T11:28:03.217Z,13.13
2022-12-29T11:31:00.626Z,13.13
2022-12-29T11:33:47.713Z,12.93
2022-12-29T11:36:35.364Z,13.50
2022-12-29T11:39:43.102Z,13.23
2022-12-29T11:42:37.674Z,12.80
2022-12-29T11:45:25.484Z,13.45
2022-12-29T11:48:17.222Z,13.77
2022-12-29T11:51:03.574Z,14.52
2022-12-29T11:53:51.749Z,13.98
2022-12-29T11:56:43.137Z,16.17
2022-12-29T11:59:30.947Z,15.43
2022-12-29T12:02:42.615Z,16.20
2022-12-29T12:05:39.933Z,16.42
2022-12-29T12:08:45.383Z,14.88
2022-12-29T12:11:39.515Z,15.77
2022-12-29T12:14:31.227Z,15.45
2022-12-29T12:17:55.187Z,15.02
2022-12-29T12:20:47.488Z,15.90
2022-12-29T12:23:52.704Z,16.20
2022-12-29T12:26:41.948Z,16.30
2022-12-29T12:29:34.390Z,17.58
2022-12-29T12:32:20.658Z,17.10
2022-12-29T12:35:07.637Z,16.95
2022-12-29T12:38:08.328Z,16.83
2022-12-29T12:41:00.674Z,15.93
2022-12-29T12:44:03.301Z,16.85
2022-12-29T12:47:05.113Z,16.98
2022-12-29T12:50:00.401Z,16.70
2022-12-29T12:52:52.566Z,16.67
2022-12-29T12:55:38.834Z,16.85
2022-12-29T12:58:31.256Z,16.75
2022-12-29T13:01:27.024Z,17.30
2022-12-29T13:04:14.211Z,17.73
2022-12-29T13:07:16.877Z,18.30
2022-12-29T13:10:18.200Z,18.92
2022-12-29T13:13:23.571Z,19.33
2022-12-29T13:16:30.132Z,19.83
2022-12-29T13:19:16.494Z,18.83
2022-12-29T13:22:14.939Z,18.02
2022-12-29T13:25:15.548Z,17.40
2022-12-29T13:28:01.998Z,19.77
2022-12-29T13:30:51.485Z,19.75
2022-12-29T13:33:47.306Z,18.98
2022-12-29T13:37:01.611Z,18.70
2022-12-29T13:39:51.266Z,18.65
2022-12-29T13:42:37.934Z,19.15
2022-12-29T13:45:25.985Z,18.55
2022-12-29T13:48:28.159Z,20.00
2022-12-29T13:51:14.791Z,20.95
2022-12-29T13:54:28.902Z,19.60
2022-12-29T13:57:27.380Z,19.92
2022-12-29T14:00:15.089Z,19.40
2022-12-29T14:03:23.757Z,20.95
2022-12-29T14:06:15.865Z,21.40
2022-12-29T14:09:02.264Z,21.10
2022-12-29T14:11:49.029Z,22.38
2022-12-29T14:14:43.816Z,21.40
2022-12-29T14:17:30.086Z,21.83
2022-12-29T14:20:22.003Z,21.65
2022-12-29T14:23:11.587Z,21.42
2022-12-29T14:26:00.729Z,22.98
2022-12-29T14:28:48.374Z,23.02
2022-12-29T14:31:36.032Z,24.48
2022-12-29T14:34:22.008Z,23.05
2022-12-29T14:37:23.787Z,23.92
2022-12-29T14:40:21.072Z,23.77
2022-12-29T14:43:14.535Z,25.15
2022-12-29T14:46:02.751Z,24.88
2022-12-29T14:48:49.447Z,25.40
2022-12-29T14:51:37.878Z,24.58
2022-12-29T14:54:34.015Z,25.92
2022-12-29T14:57:26.785Z,25.45
2022-12-29T15:00:27.603Z,26.60
2022-12-29T15:03:26.431Z,26.67
2022-12-29T15:06:13.780Z,27.10
2022-12-29T15:09:21.526Z,26.40
2022-12-29T15:12:16.553Z,25.63
2022-12-29T15:15:03.856Z,25.00
2022-12-29T15:17:50.108Z,24.50
2022-12-29T15:20:36.502Z,24.45
2022-12-29T15:23:22.930Z,23.58
2022-12-29T15:26:10.286Z,23.45
2022-12-29T15:28:56.830Z,21.70
2022-12-29T15:31:49.525Z,23.50
2022-12-29T15:34:35.559Z,22.90
2022-12-29T15:37:23.533Z,22.92
2022-12-29T15:40:25.342Z,22.52
2022-12-29T15:43:17.974Z,22.02
2022-12-29T15:46:04.460Z,22.95
2022-12-29T15:48:51.309Z,21.40
2022-12-29T15:51:39.443Z,22.10
2022-12-29T15:54:26.346Z,20.88
2022-12-29T15:57:21.832Z,20.33
2022-12-29T16:00:28.098Z,21.20
2022-12-29T16:03:15.753Z,19.13
2022-12-29T16:06:10.068Z,19.00
2022-12-29T16:08:59.511Z,18.38
2022-12-29T16:11:47.387Z,18.92
2022-12-29T16:14:45.508Z,17.83
2022-12-29T16:17:33.803Z,17.63
2022-12-29T16:20:20.242Z,17.42
2022-12-29T16:23:07.059Z,18.95
2022-12-29T16:25:55.705Z,18.15
2022-12-29T16:28:43.600Z,18.30
2022-12-29T16:31:37.956Z,19.08
2022-12-29T16:34:32.047Z,18.00
2022-12-29T16:37:38.807Z,17.67
2022-12-29T16:40:28.014Z,17.90
2022-12-29T16:43:35.866Z,17.38
2022-12-29T16:46:32.366Z,18.10
2022-12-29T16:49:22.279Z,18.42
2022-12-29T16:52:14.995Z,17.23
2022-12-29T16:55:02.362Z,19.13
2022-12-29T16:57:50.038Z,18.98
2022-12-29T17:00:37.659Z,18.75
2022-12-29T17:03:24.459Z,18.45
2022-12-29T17:06:16.403Z,18.75
2022-12-29T17:09:02.696Z,18.65
2022-12-29T17:12:10.708Z,19.63
2022-12-29T17:15:06.028Z,18.50
2022-12-29T17:17:53.541Z,19.70
2022-12-29T17:20:40.815Z,21.27
2022-12-29T17:23:27.452Z,20.67
2022-12-29T17:26:14.356Z,20.48
2022-12-29T17:29:00.829Z,21.10
2022-12-29T17:31:47.013Z,22.15
2022-12-29T17:34:33.505Z,22.40
2022-12-29T17:37:29.874Z,23.15
2022-12-29T17:40:27.669Z,23.65
2022-12-29T17:43:17.349Z,23.10
2022-12-29T17:46:04.750Z,24.80
2022-12-29T17:48:53.851Z,25.70
2022-12-29T17:51:40.849Z,25.73
2022-12-29T17:54:27.349Z,26.50
2022-12-29T17:57:14.833Z,25.33
2022-12-29T18:00:01.299Z,26.73
2022-12-29T18:02:48.009Z,27.35
2022-12-29T18:05:35.112Z,27.63
2022-12-29T18:08:22.035Z,26.83
2022-12-29T18:11:22.307Z,27.42
2022-12-29T18:14:18.516Z,27.63
2022-12-29T18:17:12.489Z,28.08
2022-12-29T18:19:58.950Z,28.42
2022-12-29T18:22:46.849Z,28.33
2022-12-29T18:25:51.537Z,27.73
2022-12-29T18:28:41.379Z,28.88
2022-12-29T18:31:34.715Z,29.15
2022-12-29T18:34:44.754Z,27.38
2022-12-29T18:37:31.830Z,29.50
2022-12-29T18:40:19.960Z,28.92
2022-12-29T18:43:09.818Z,28.95
2022-12-29T18:45:56.861Z,27.85
2022-12-29T18:48:43.457Z,26.92
2022-12-29T18:51:30.627Z,25.70
2022-12-29T18:54:28.869Z,25.83
2022-12-29T18:57:18.487Z,24.05
2022-12-29T19:00:06.453Z,23.40
2022-12-29T19:02:54.641Z,22.88
2022-12-29T19:05:42.256Z,23.02
2022-12-29T19:08:31.340Z,22.55
2022-12-29T19:11:25.915Z,22.15
2022-12-29T19:14:16.849Z,21.63
2022-12-29T19:17:08.224Z,22.08
2022-12-29T19:19:55.291Z,21.13
2022-12-29T19:22:41.880Z,21.65
2022-12-29T19:29:02.167Z,21.27
2022-12-29T19:31:57.289Z,23.13
2022-12-29T19:34:43.380Z,23.60
2022-12-29T19:37:29.596Z,22.23
2022-12-29T19:40:18.714Z,22.38
2022-12-29T19:43:09.561Z,23.20
2022-12-29T19:45:55.923Z,23.52
2022-12-29T19:48:47.346Z,23.15
2022-12-29T19:51:38.853Z,23.63
2022-12-29T19:54:26.056Z,25.08
2022-12-29T19:57:14.702Z,23.92
2022-12-29T20:00:05.305Z,23.33
2022-12-29T20:03:21.234Z,25.80
2022-12-29T20:06:14.425Z,25.45
2022-12-29T20:12:08.608Z,25.92
2022-12-29T20:15:03.556Z,25.70
2022-12-29T20:21:05.076Z,27.00
2022-12-29T20:26:57.430Z,26.17
2022-12-29T20:32:44.420Z,27.10
2022-12-29T20:35:31.021Z,28.30
2022-12-29T20:38:20.713Z,27.35
2022-12-29T20:41:15.832Z,27.48
2022-12-29T20:44:02.119Z,28.67
2022-12-29T20:46:49.313Z,27.80
2022-12-29T20:49:35.518Z,28.55
2022-12-29T20:52:22.085Z,28.42
2022-12-29T20:55:11.003Z,27.58
2022-12-29T20:58:23.010Z,28.50
2022-12-29T21:01:07.863Z,28.45
2022-12-29T21:04:06.381Z,27.15
2022-12-29T21:06:53.243Z,26.83
2022-12-29T21:09:39.415Z,26.35
2022-12-29T21:12:26.227Z,25.95
2022-12-29T21:15:15.708Z,26.17
2022-12-29T21:18:02.899Z,24.60
2022-12-29T21:21:18.732Z,25.25
2022-12-29T21:27:15.655Z,25.98
2022-12-29T21:30:01.902Z,26.23
2022-12-29T21:32:48.752Z,27.00
2022-12-29T21:38:30.437Z,25.92
2022-12-29T21:51:50.974Z,26.50
2022-12-29T21:54:55.698Z,25.38
2022-12-29T21:58:00.887Z,26.73
2022-12-29T22:01:06.116Z,26.77
2022-12-29T22:04:11.397Z,28.15
2022-12-29T22:07:16.813Z,26.90
2022-12-29T22:10:22.480Z,26.45
2022-12-29T22:13:14.626Z,28.85
2022-12-29T22:16:04.252Z,26.83
2022-12-29T22:18:52.829Z,27.05
2022-12-29T22:21:39.273Z,27.73
2022-12-29T22:24:29.940Z,27.50
2022-12-29T22:27:16.840Z,27.60
2022-12-29T22:30:03.198Z,27.55
2022-12-29T22:32:49.375Z,27.75
2022-12-29T22:35:35.547Z,27.85
2022-12-29T22:38:21.786Z,27.52
2022-12-29T22:41:18.288Z,27.90
2022-12-29T22:44:05.781Z,27.90
2022-12-29T22:46:52.029Z,27.58
2022-12-29T22:49:38.208Z,27.17
2022-12-29T22:52:24.393Z,27.50
2022-12-29T22:55:10.700Z,27.40
2022-12-29T22:57:56.839Z,28.27
2022-12-29T23:00:43.261Z,28.52
2022-12-29T23:06:29.755Z,28.63
2022-12-29T23:09:20.477Z,29.15
2022-12-29T23:12:07.023Z,28.85
2022-12-29T23:14:53.765Z,29.30
2022-12-29T23:17:40.305Z,28.15
2022-12-29T23:20:27.236Z,27.88
2022-12-29T23:23:14.039Z,27.83
2022-12-29T23:26:11.093Z,27.90
2022-12-29T23:29:00.754Z,28.33
2022-12-29T23:31:47.894Z,28.00
2022-12-29T23:34:34.899Z,27.25
2022-12-29T23:37:21.620Z,27.15
2022-12-29T23:40:08.472Z,27.33
2022-12-29T23:42:55.626Z,27.13
2022-12-29T23:45:50.599Z,28.15
2022-12-29T23:48:37.844Z,28.50
2022-12-29T23:51:24.373Z,27.42
2022-12-29T23:54:11.488Z,27.52
2022-12-29T23:56:57.925Z,27.55
2022-12-29T23:59:44.407Z,27.08
